»·PEaware :: SWA1375 KSJC-KPDX

SWA1375 :: KSJC-KPDX

FLIGHT INFORMATION

Flight Status: Arrived
Operator:
Southwest Airlines
More flights by this operator :: More flights under this callsign
Pilot: Kevin M. (7)
Aircraft: BOEING 737-800
(B738)
More flights by this aircraft type
Origin: KSJC Mineta San Jose Intl
United States
Destination: KPDX Portland Intl
United States
More flights between these airports :: More routes between these airports
Route: LOUPE4 BMRNG HRNER MACHU TMBRS2
File this flight plan on PilotEdge
Remarks:
Altitude:
(Current/Filed)
36,000ft
Speed:
(Current/Filed)
459kts
Departed: 09-Jan-18 01:28 PM
Arrived: 09-Jan-18 03:01 PM
Distance/Time
Traveled:
495nm/1:33
Distance/Time
To Go:
Arrived

Flight Plot

Page will automatically refresh every two minutes.

Flight plan parsing failed; only flown route is shown


Map Options




Map Legend


Flown Route
Filed Route
Departure Airport
Arrival Airport
Navaid (VOR, NDB)
Fix

Horizontal Profiles

Position Reports

Time Latitude Longitude Heading Altitude Ground
Speed
09-Jan-18 13:13 37.366881 -121.927421 48 69ft 0kts
09-Jan-18 13:14 37.366881 -121.927421 48 69ft 0kts
09-Jan-18 13:15 37.366881 -121.927421 48 69ft 0kts
09-Jan-18 13:16 37.366881 -121.927421 48 69ft 0kts
09-Jan-18 13:17 37.366881 -121.927421 48 69ft 0kts
09-Jan-18 13:18 37.366881 -121.927421 48 69ft 0kts
09-Jan-18 13:19 37.366881 -121.927421 48 70ft 0kts
09-Jan-18 13:20 37.366881 -121.927421 48 70ft 0kts
09-Jan-18 13:21 37.366881 -121.927421 48 70ft 0kts
09-Jan-18 13:22 37.366881 -121.927421 48 70ft 0kts
09-Jan-18 13:23 37.366881 -121.927421 48 70ft 0kts
09-Jan-18 13:24 37.366881 -121.927421 48 70ft 0kts
09-Jan-18 13:25 37.366881 -121.927421 48 70ft 0kts
09-Jan-18 13:26 37.366881 -121.927421 48 70ft 0kts
09-Jan-18 13:27 37.366716 -121.927657 48 70ft 2kts
09-Jan-18 13:28 37.366530 -121.928260 134 70ft 0kts
09-Jan-18 13:29 37.366594 -121.928322 137 69ft 0kts
09-Jan-18 13:30 37.366594 -121.928322 137 69ft 0kts
09-Jan-18 13:31 37.364806 -121.926356 140 70ft 18kts
09-Jan-18 13:32 37.359607 -121.920665 138 70ft 30kts
09-Jan-18 13:33 37.354259 -121.914781 139 69ft 19kts
09-Jan-18 13:34 37.353799 -121.916950 318 70ft 43kts
09-Jan-18 13:35 37.381628 -121.946184 318 867ft 184kts
09-Jan-18 13:36 37.432415 -121.981113 18 3215ft 242kts
09-Jan-18 13:37 37.452993 -121.896962 124 3674ft 315kts
09-Jan-18 13:38 37.406385 -121.839336 136 7869ft 284kts
09-Jan-18 13:39 37.349268 -121.775683 136 10787ft 308kts
09-Jan-18 13:40 37.266644 -121.745173 208 13026ft 366kts
09-Jan-18 13:41 37.249210 -121.858335 308 15961ft 385kts
09-Jan-18 13:42 37.338980 -121.923155 336 18888ft 391kts
09-Jan-18 13:43 37.437683 -121.951571 359 21507ft 395kts
09-Jan-18 13:44 37.540601 -121.959312 357 23969ft 404kts
09-Jan-18 13:45 37.649485 -121.968557 357 26112ft 415kts
09-Jan-18 13:46 37.759797 -121.978166 356 28019ft 425kts
09-Jan-18 13:47 37.874577 -121.988010 355 29754ft 434kts
09-Jan-18 13:48 37.972960 -121.996517 355 31425ft 433kts
09-Jan-18 13:49 38.106637 -122.008087 354 33622ft 428kts
09-Jan-18 13:50 38.220595 -122.017983 354 35301ft 425kts
09-Jan-18 13:51 38.313322 -122.025968 354 35764ft 409kts
09-Jan-18 13:52 38.441152 -122.046987 350 35772ft 416kts
09-Jan-18 13:53 38.534739 -122.063067 350 35769ft 416kts
09-Jan-18 13:54 38.647221 -122.082360 350 35771ft 416kts
09-Jan-18 13:55 38.760335 -122.101697 350 35766ft 416kts
09-Jan-18 13:56 38.873912 -122.121145 350 35769ft 416kts
09-Jan-18 13:57 38.989421 -122.140938 349 35753ft 432kts
09-Jan-18 13:58 39.125572 -122.164241 349 35752ft 440kts
09-Jan-18 13:59 39.225694 -122.181397 349 35754ft 440kts
09-Jan-18 14:00 39.345176 -122.201855 349 35762ft 440kts
09-Jan-18 14:01 39.464544 -122.222314 349 35760ft 440kts
09-Jan-18 14:02 39.584032 -122.242766 349 35760ft 440kts
09-Jan-18 14:03 39.702743 -122.263110 349 35764ft 440kts
09-Jan-18 14:04 39.821954 -122.283532 349 35761ft 440kts
09-Jan-18 14:05 39.940426 -122.303822 349 35767ft 439kts
09-Jan-18 14:06 40.059431 -122.324207 349 35771ft 439kts
09-Jan-18 14:07 40.175379 -122.344069 349 35772ft 439kts
09-Jan-18 14:08 40.294441 -122.364476 349 35754ft 439kts
09-Jan-18 14:09 40.414556 -122.385059 349 35755ft 440kts
09-Jan-18 14:10 40.534209 -122.405571 349 35754ft 439kts
09-Jan-18 14:11 40.653356 -122.425996 349 35751ft 440kts
09-Jan-18 14:12 40.773761 -122.446604 349 35749ft 440kts
09-Jan-18 14:13 40.893991 -122.467220 349 35753ft 440kts
09-Jan-18 14:14 41.013837 -122.487739 349 35747ft 443kts
09-Jan-18 14:15 41.132017 -122.508022 348 35765ft 458kts
09-Jan-18 14:16 41.256405 -122.529339 348 35781ft 457kts
09-Jan-18 14:17 41.377310 -122.550056 348 35786ft 457kts
09-Jan-18 14:18 41.501122 -122.571257 348 35786ft 457kts
09-Jan-18 14:19 41.626613 -122.582211 353 35788ft 460kts
09-Jan-18 14:20 41.752205 -122.590212 353 35785ft 460kts
09-Jan-18 14:21 41.878064 -122.598443 353 35787ft 460kts
09-Jan-18 14:22 42.004046 -122.606718 353 35784ft 460kts
09-Jan-18 14:23 42.127892 -122.614834 353 35788ft 460kts
09-Jan-18 14:24 42.253561 -122.623173 353 35796ft 459kts
09-Jan-18 14:25 42.378267 -122.631548 353 35792ft 460kts
09-Jan-18 14:26 42.504809 -122.640055 353 35794ft 459kts
09-Jan-18 14:27 42.631030 -122.648554 353 35792ft 460kts
09-Jan-18 14:28 42.756509 -122.656959 352 35802ft 459kts
09-Jan-18 14:29 42.882870 -122.665473 352 35803ft 459kts
09-Jan-18 14:30 43.010392 -122.674225 352 35806ft 464kts
09-Jan-18 14:31 43.135574 -122.682810 352 35818ft 465kts
09-Jan-18 14:32 43.263013 -122.691543 352 35832ft 465kts
09-Jan-18 14:33 43.391067 -122.700328 352 35835ft 465kts
09-Jan-18 14:34 43.519225 -122.709225 352 35839ft 465kts
09-Jan-18 14:35 43.643231 -122.717763 352 35727ft 423kts
09-Jan-18 14:36 43.757146 -122.725737 352 33656ft 409kts
09-Jan-18 14:37 43.865665 -122.733331 352 31694ft 393kts
09-Jan-18 14:38 43.970398 -122.740647 352 29834ft 377kts
09-Jan-18 14:39 44.074450 -122.747946 352 27969ft 386kts
09-Jan-18 14:40 44.173044 -122.751700 359 26225ft 390kts
09-Jan-18 14:41 44.275794 -122.764498 325 25165ft 373kts
09-Jan-18 14:42 44.369275 -122.819238 358 24857ft 394kts
09-Jan-18 14:43 44.469614 -122.773304 16 22792ft 384kts
09-Jan-18 14:44 44.565640 -122.720495 16 20930ft 373kts
09-Jan-18 14:45 44.662187 -122.701904 359 19162ft 354kts
09-Jan-18 14:46 44.755949 -122.692899 359 17476ft 346kts
09-Jan-18 14:47 44.848258 -122.683667 359 16018ft 339kts
09-Jan-18 14:48 44.938446 -122.674569 359 14366ft 322kts
09-Jan-18 14:49 45.022560 -122.666029 358 12856ft 305kts
09-Jan-18 14:50 45.102686 -122.657902 358 11422ft 303kts
09-Jan-18 14:51 45.181607 -122.649882 359 9998ft 301kts
09-Jan-18 14:52 45.259183 -122.647978 336 8605ft 283kts
09-Jan-18 14:53 45.329108 -122.686501 336 7246ft 281kts
09-Jan-18 14:54 45.397570 -122.724172 337 6971ft 254kts
09-Jan-18 14:55 45.455637 -122.756031 335 6960ft 218kts
09-Jan-18 14:56 45.509865 -122.785979 335 6980ft 215kts
09-Jan-18 14:57 45.565350 -122.816567 335 6976ft 215kts
09-Jan-18 14:58 45.602637 -122.880316 301 6125ft 234kts
09-Jan-18 14:59 45.642037 -122.956406 319 3964ft 223kts
09-Jan-18 15:00 45.695977 -122.961580 45 3984ft 231kts
09-Jan-18 15:01 45.696205 -122.882279 121 3952ft 199kts
09-Jan-18 15:02 45.671172 -122.817644 116 3072ft 178kts
09-Jan-18 15:03 45.646919 -122.754791 117 2173ft 170kts
09-Jan-18 15:04 45.625314 -122.699106 118 1271ft 149kts
09-Jan-18 15:05 45.605603 -122.648434 119 509ft 147kts
09-Jan-18 15:06 45.588567 -122.604615 117 37ft 51kts
09-Jan-18 15:07 45.589778 -122.601388 80 36ft 12kts
09-Jan-18 15:08 45.589867 -122.600067 84 37ft 0kts
09-Jan-18 15:09 45.589867 -122.600067 84 37ft 0kts
09-Jan-18 15:10 45.589867 -122.600067 84 37ft 0kts
09-Jan-18 15:11 45.589867 -122.600067 84 37ft 0kts

Navigation Log

Ident Type
Flight plan parsing failed, navigation log unavailable